sensor_id;sensor_type;location;lat;lon;timestamp;temperature;humidity
34989;DHT22;21192;40.182;44.516;2023-05-20T00:02:02;19.90;95.20
34989;DHT22;21192;40.182;44.516;2023-05-20T00:04:28;19.80;96.00
34989;DHT22;21192;40.182;44.516;2023-05-20T00:06:54;19.70;97.10
34989;DHT22;21192;40.182;44.516;2023-05-20T00:09:20;19.50;98.10
34989;DHT22;21192;40.182;44.516;2023-05-20T00:11:45;19.40;98.60
34989;DHT22;21192;40.182;44.516;2023-05-20T00:14:11;19.50;98.60
34989;DHT22;21192;40.182;44.516;2023-05-20T00:16:37;19.60;98.40
34989;DHT22;21192;40.182;44.516;2023-05-20T00:19:03;19.60;98.10
34989;DHT22;21192;40.182;44.516;2023-05-20T00:21:28;19.50;98.10
34989;DHT22;21192;40.182;44.516;2023-05-20T00:23:56;19.50;98.20
34989;DHT22;21192;40.182;44.516;2023-05-20T00:26:22;19.60;98.20
34989;DHT22;21192;40.182;44.516;2023-05-20T00:28:48;19.60;98.10
34989;DHT22;21192;40.182;44.516;2023-05-20T00:31:14;19.60;98.00
34989;DHT22;21192;40.182;44.516;2023-05-20T00:33:40;19.70;98.00
34989;DHT22;21192;40.182;44.516;2023-05-20T00:36:06;19.60;98.00
34989;DHT22;21192;40.182;44.516;2023-05-20T00:38:32;19.70;98.00
34989;DHT22;21192;40.182;44.516;2023-05-20T00:40:58;19.70;97.80
34989;DHT22;21192;40.182;44.516;2023-05-20T00:43:24;19.70;97.80
34989;DHT22;21192;40.182;44.516;2023-05-20T00:45:52;19.70;97.80
34989;DHT22;21192;40.182;44.516;2023-05-20T00:48:19;19.70;97.80
34989;DHT22;21192;40.182;44.516;2023-05-20T00:50:47;19.70;97.80
34989;DHT22;21192;40.182;44.516;2023-05-20T00:53:13;19.70;97.90
34989;DHT22;21192;40.182;44.516;2023-05-20T00:55:41;19.80;97.80
34989;DHT22;21192;40.182;44.516;2023-05-20T00:58:07;19.80;97.80
34989;DHT22;21192;40.182;44.516;2023-05-20T01:00:33;19.80;97.70
34989;DHT22;21192;40.182;44.516;2023-05-20T01:02:59;19.90;97.50
34989;DHT22;21192;40.182;44.516;2023-05-20T01:05:25;19.90;97.20
34989;DHT22;21192;40.182;44.516;2023-05-20T01:07:51;20.00;97.10
34989;DHT22;21192;40.182;44.516;2023-05-20T01:10:17;20.10;96.90
34989;DHT22;21192;40.182;44.516;2023-05-20T01:12:48;20.00;96.90
34989;DHT22;21192;40.182;44.516;2023-05-20T01:15:15;20.00;96.90
34989;DHT22;21192;40.182;44.516;2023-05-20T01:17:46;20.10;96.80
34989;DHT22;21192;40.182;44.516;2023-05-20T01:20:14;20.10;96.70
34989;DHT22;21192;40.182;44.516;2023-05-20T01:22:53;20.00;96.40
34989;DHT22;21192;40.182;44.516;2023-05-20T01:25:20;20.00;96.20
34989;DHT22;21192;40.182;44.516;2023-05-20T01:27:47;19.90;96.00
34989;DHT22;21192;40.182;44.516;2023-05-20T01:30:13;19.90;95.70
34989;DHT22;21192;40.182;44.516;2023-05-20T01:32:51;19.90;95.30
34989;DHT22;21192;40.182;44.516;2023-05-20T01:35:19;19.90;94.70
34989;DHT22;21192;40.182;44.516;2023-05-20T01:37:47;19.80;94.60
34989;DHT22;21192;40.182;44.516;2023-05-20T01:40:14;19.70;94.70
34989;DHT22;21192;40.182;44.516;2023-05-20T01:42:42;19.60;95.00
34989;DHT22;21192;40.182;44.516;2023-05-20T01:45:10;19.50;95.30
34989;DHT22;21192;40.182;44.516;2023-05-20T01:47:36;19.40;95.60
34989;DHT22;21192;40.182;44.516;2023-05-20T01:50:02;19.40;95.50
34989;DHT22;21192;40.182;44.516;2023-05-20T01:52:28;19.40;95.50
34989;DHT22;21192;40.182;44.516;2023-05-20T01:54:53;19.40;95.50
34989;DHT22;21192;40.182;44.516;2023-05-20T01:57:20;19.40;95.40
34989;DHT22;21192;40.182;44.516;2023-05-20T01:59:47;19.40;95.40
34989;DHT22;21192;40.182;44.516;2023-05-20T02:02:13;19.40;95.30
34989;DHT22;21192;40.182;44.516;2023-05-20T02:04:39;19.50;95.20
34989;DHT22;21192;40.182;44.516;2023-05-20T02:07:07;19.50;95.10
34989;DHT22;21192;40.182;44.516;2023-05-20T02:09:32;19.40;95.30
34989;DHT22;21192;40.182;44.516;2023-05-20T02:11:58;19.40;95.30
34989;DHT22;21192;40.182;44.516;2023-05-20T02:14:24;19.30;95.50
34989;DHT22;21192;40.182;44.516;2023-05-20T02:16:50;19.20;95.80
34989;DHT22;21192;40.182;44.516;2023-05-20T02:19:16;19.10;96.20
34989;DHT22;21192;40.182;44.516;2023-05-20T02:21:48;19.00;96.70
34989;DHT22;21192;40.182;44.516;2023-05-20T02:24:14;19.00;96.80
34989;DHT22;21192;40.182;44.516;2023-05-20T02:26:40;18.90;96.90
34989;DHT22;21192;40.182;44.516;2023-05-20T02:29:06;18.90;96.90
34989;DHT22;21192;40.182;44.516;2023-05-20T02:31:32;18.90;97.00
34989;DHT22;21192;40.182;44.516;2023-05-20T02:33:58;18.70;97.30
34989;DHT22;21192;40.182;44.516;2023-05-20T02:36:24;18.60;97.80
34989;DHT22;21192;40.182;44.516;2023-05-20T02:38:50;18.60;98.10
34989;DHT22;21192;40.182;44.516;2023-05-20T02:41:16;18.70;98.30
34989;DHT22;21192;40.182;44.516;2023-05-20T02:43:41;18.60;97.90
34989;DHT22;21192;40.182;44.516;2023-05-20T02:46:09;18.70;97.80
34989;DHT22;21192;40.182;44.516;2023-05-20T02:48:35;18.80;97.60
34989;DHT22;21192;40.182;44.516;2023-05-20T02:51:01;18.80;97.30
34989;DHT22;21192;40.182;44.516;2023-05-20T02:53:26;18.70;97.20
34989;DHT22;21192;40.182;44.516;2023-05-20T02:55:52;18.70;97.20
34989;DHT22;21192;40.182;44.516;2023-05-20T02:58:18;18.70;97.30
34989;DHT22;21192;40.182;44.516;2023-05-20T03:00:51;18.60;97.30
34989;DHT22;21192;40.182;44.516;2023-05-20T03:03:17;18.60;97.60
34989;DHT22;21192;40.182;44.516;2023-05-20T03:05:43;18.60;97.80
34989;DHT22;21192;40.182;44.516;2023-05-20T03:08:11;18.60;97.70
34989;DHT22;21192;40.182;44.516;2023-05-20T03:10:37;18.70;97.80
34989;DHT22;21192;40.182;44.516;2023-05-20T03:13:04;18.70;97.80
34989;DHT22;21192;40.182;44.516;2023-05-20T03:15:36;18.70;97.80
34989;DHT22;21192;40.182;44.516;2023-05-20T03:18:02;18.80;97.80
34989;DHT22;21192;40.182;44.516;2023-05-20T03:20:28;18.80;97.70
34989;DHT22;21192;40.182;44.516;2023-05-20T03:22:54;18.80;97.80
34989;DHT22;21192;40.182;44.516;2023-05-20T03:25:21;18.90;97.80
34989;DHT22;21192;40.182;44.516;2023-05-20T03:27:47;18.90;97.80
34989;DHT22;21192;40.182;44.516;2023-05-20T03:30:13;18.90;97.90
34989;DHT22;21192;40.182;44.516;2023-05-20T03:32:39;18.90;97.90
34989;DHT22;21192;40.182;44.516;2023-05-20T03:35:05;19.00;97.80
34989;DHT22;21192;40.182;44.516;2023-05-20T03:37:32;19.00;97.80
34989;DHT22;21192;40.182;44.516;2023-05-20T03:39:57;19.10;97.70
34989;DHT22;21192;40.182;44.516;2023-05-20T03:42:23;19.20;97.40
34989;DHT22;21192;40.182;44.516;2023-05-20T03:44:49;19.20;97.00
34989;DHT22;21192;40.182;44.516;2023-05-20T03:47:15;19.30;96.80
34989;DHT22;21192;40.182;44.516;2023-05-20T03:49:40;19.30;96.50
34989;DHT22;21192;40.182;44.516;2023-05-20T03:52:07;19.40;96.30
34989;DHT22;21192;40.182;44.516;2023-05-20T03:54:33;19.50;96.10
34989;DHT22;21192;40.182;44.516;2023-05-20T03:57:00;19.60;95.80
34989;DHT22;21192;40.182;44.516;2023-05-20T03:59:28;19.80;95.50
34989;DHT22;21192;40.182;44.516;2023-05-20T04:01:53;19.90;95.20
34989;DHT22;21192;40.182;44.516;2023-05-20T04:04:21;20.00;94.90
34989;DHT22;21192;40.182;44.516;2023-05-20T04:06:47;20.10;94.70
34989;DHT22;21192;40.182;44.516;2023-05-20T04:09:13;20.20;94.30
34989;DHT22;21192;40.182;44.516;2023-05-20T04:11:39;20.30;94.00
34989;DHT22;21192;40.182;44.516;2023-05-20T04:14:04;20.30;93.80
34989;DHT22;21192;40.182;44.516;2023-05-20T04:16:31;20.20;94.00
34989;DHT22;21192;40.182;44.516;2023-05-20T04:18:57;20.30;94.00
34989;DHT22;21192;40.182;44.516;2023-05-20T04:21:23;20.40;94.10
34989;DHT22;21192;40.182;44.516;2023-05-20T04:23:49;20.40;94.00
34989;DHT22;21192;40.182;44.516;2023-05-20T04:26:15;20.50;93.80
34989;DHT22;21192;40.182;44.516;2023-05-20T04:28:41;20.50;93.80
34989;DHT22;21192;40.182;44.516;2023-05-20T04:31:07;20.60;93.60
34989;DHT22;21192;40.182;44.516;2023-05-20T04:33:33;20.70;93.50
34989;DHT22;21192;40.182;44.516;2023-05-20T04:36:03;20.70;93.60
34989;DHT22;21192;40.182;44.516;2023-05-20T04:38:30;20.60;93.80
34989;DHT22;21192;40.182;44.516;2023-05-20T04:41:00;20.60;93.80
34989;DHT22;21192;40.182;44.516;2023-05-20T04:43:27;20.70;93.80
34989;DHT22;21192;40.182;44.516;2023-05-20T04:45:59;20.70;93.70
34989;DHT22;21192;40.182;44.516;2023-05-20T04:48:26;20.60;93.80
34989;DHT22;21192;40.182;44.516;2023-05-20T04:50:52;20.40;94.30
34989;DHT22;21192;40.182;44.516;2023-05-20T04:53:19;20.40;94.90
34989;DHT22;21192;40.182;44.516;2023-05-20T04:55:46;20.50;95.20
34989;DHT22;21192;40.182;44.516;2023-05-20T04:58:13;20.40;95.50
34989;DHT22;21192;40.182;44.516;2023-05-20T05:00:44;20.30;96.20
34989;DHT22;21192;40.182;44.516;2023-05-20T05:03:11;20.20;96.80
34989;DHT22;21192;40.182;44.516;2023-05-20T05:05:40;20.20;97.20
34989;DHT22;21192;40.182;44.516;2023-05-20T05:08:07;20.20;97.70
34989;DHT22;21192;40.182;44.516;2023-05-20T05:10:34;20.30;98.10
34989;DHT22;21192;40.182;44.516;2023-05-20T05:13:00;20.30;98.30
34989;DHT22;21192;40.182;44.516;2023-05-20T05:15:27;20.20;99.10
34989;DHT22;21192;40.182;44.516;2023-05-20T05:17:53;20.20;99.60
34989;DHT22;21192;40.182;44.516;2023-05-20T05:20:19;20.30;99.70
34989;DHT22;21192;40.182;44.516;2023-05-20T05:22:45;20.20;99.90
34989;DHT22;21192;40.182;44.516;2023-05-20T05:25:11;20.30;99.90
34989;DHT22;21192;40.182;44.516;2023-05-20T05:27:38;20.40;99.90
34989;DHT22;21192;40.182;44.516;2023-05-20T05:30:05;20.40;99.90
34989;DHT22;21192;40.182;44.516;2023-05-20T05:32:31;20.50;99.90
34989;DHT22;21192;40.182;44.516;2023-05-20T05:34:58;20.50;99.90
34989;DHT22;21192;40.182;44.516;2023-05-20T05:37:24;20.50;99.90
34989;DHT22;21192;40.182;44.516;2023-05-20T05:39:50;20.50;99.90
34989;DHT22;21192;40.182;44.516;2023-05-20T05:42:16;20.50;99.90
34989;DHT22;21192;40.182;44.516;2023-05-20T05:44:41;20.70;99.90
34989;DHT22;21192;40.182;44.516;2023-05-20T05:47:07;20.80;99.90
34989;DHT22;21192;40.182;44.516;2023-05-20T05:49:33;20.80;99.90
34989;DHT22;21192;40.182;44.516;2023-05-20T05:51:59;20.90;99.90
34989;DHT22;21192;40.182;44.516;2023-05-20T05:54:25;20.90;99.90
34989;DHT22;21192;40.182;44.516;2023-05-20T05:56:51;20.90;99.90
34989;DHT22;21192;40.182;44.516;2023-05-20T05:59:18;21.00;99.80
34989;DHT22;21192;40.182;44.516;2023-05-20T06:01:44;21.00;99.60
34989;DHT22;21192;40.182;44.516;2023-05-20T06:04:10;21.10;99.40
34989;DHT22;21192;40.182;44.516;2023-05-20T06:06:36;21.20;99.00
34989;DHT22;21192;40.182;44.516;2023-05-20T06:09:02;21.20;98.70
34989;DHT22;21192;40.182;44.516;2023-05-20T06:11:28;21.30;98.50
34989;DHT22;21192;40.182;44.516;2023-05-20T06:13:54;21.30;98.50
34989;DHT22;21192;40.182;44.516;2023-05-20T06:16:20;21.30;98.30
34989;DHT22;21192;40.182;44.516;2023-05-20T06:18:46;21.40;98.20
34989;DHT22;21192;40.182;44.516;2023-05-20T06:21:15;21.40;98.10
34989;DHT22;21192;40.182;44.516;2023-05-20T06:23:41;21.50;97.80
34989;DHT22;21192;40.182;44.516;2023-05-20T06:26:06;21.50;97.70
34989;DHT22;21192;40.182;44.516;2023-05-20T06:28:32;21.50;97.60
34989;DHT22;21192;40.182;44.516;2023-05-20T06:30:58;21.70;97.40
34989;DHT22;21192;40.182;44.516;2023-05-20T06:33:25;21.70;97.00
34989;DHT22;21192;40.182;44.516;2023-05-20T06:35:53;21.70;96.90
34989;DHT22;21192;40.182;44.516;2023-05-20T06:38:19;21.70;96.70
34989;DHT22;21192;40.182;44.516;2023-05-20T06:40:46;21.80;96.30
34989;DHT22;21192;40.182;44.516;2023-05-20T06:43:12;21.70;96.10
34989;DHT22;21192;40.182;44.516;2023-05-20T06:45:38;21.70;96.10
34989;DHT22;21192;40.182;44.516;2023-05-20T06:48:04;21.70;96.30
34989;DHT22;21192;40.182;44.516;2023-05-20T06:50:30;21.60;95.90
34989;DHT22;21192;40.182;44.516;2023-05-20T06:52:56;21.50;95.70
34989;DHT22;21192;40.182;44.516;2023-05-20T06:55:22;21.40;95.50
34989;DHT22;21192;40.182;44.516;2023-05-20T06:57:47;21.30;95.60
34989;DHT22;21192;40.182;44.516;2023-05-20T07:00:13;21.20;95.50
34989;DHT22;21192;40.182;44.516;2023-05-20T07:02:40;21.10;95.00
34989;DHT22;21192;40.182;44.516;2023-05-20T07:05:06;21.00;94.90
34989;DHT22;21192;40.182;44.516;2023-05-20T07:07:32;20.90;95.00
34989;DHT22;21192;40.182;44.516;2023-05-20T07:09:58;20.80;95.10
34989;DHT22;21192;40.182;44.516;2023-05-20T07:12:24;20.70;95.40
34989;DHT22;21192;40.182;44.516;2023-05-20T07:14:50;20.50;96.00
34989;DHT22;21192;40.182;44.516;2023-05-20T07:17:16;20.30;96.70
34989;DHT22;21192;40.182;44.516;2023-05-20T07:19:42;20.20;97.30
34989;DHT22;21192;40.182;44.516;2023-05-20T07:22:08;20.10;97.80
34989;DHT22;21192;40.182;44.516;2023-05-20T07:24:35;20.00;98.40
34989;DHT22;21192;40.182;44.516;2023-05-20T07:27:01;20.10;99.10
34989;DHT22;21192;40.182;44.516;2023-05-20T07:29:27;20.10;99.60
34989;DHT22;21192;40.182;44.516;2023-05-20T07:31:53;20.10;99.60
34989;DHT22;21192;40.182;44.516;2023-05-20T07:34:18;20.20;99.80
34989;DHT22;21192;40.182;44.516;2023-05-20T07:36:45;20.20;99.90
34989;DHT22;21192;40.182;44.516;2023-05-20T07:39:10;20.20;99.90
34989;DHT22;21192;40.182;44.516;2023-05-20T07:41:37;20.20;99.90
34989;DHT22;21192;40.182;44.516;2023-05-20T07:44:06;20.10;99.90
34989;DHT22;21192;40.182;44.516;2023-05-20T07:46:33;20.20;99.90
34989;DHT22;21192;40.182;44.516;2023-05-20T07:48:59;20.20;99.90
34989;DHT22;21192;40.182;44.516;2023-05-20T07:51:25;20.20;99.90
34989;DHT22;21192;40.182;44.516;2023-05-20T07:53:51;20.30;99.90
34989;DHT22;21192;40.182;44.516;2023-05-20T07:56:17;20.40;99.90
34989;DHT22;21192;40.182;44.516;2023-05-20T07:58:50;20.40;99.90
34989;DHT22;21192;40.182;44.516;2023-05-20T08:01:16;20.40;99.90
34989;DHT22;21192;40.182;44.516;2023-05-20T08:03:42;20.60;99.90
34989;DHT22;21192;40.182;44.516;2023-05-20T08:06:08;20.50;99.90
34989;DHT22;21192;40.182;44.516;2023-05-20T08:08:34;20.40;99.90
34989;DHT22;21192;40.182;44.516;2023-05-20T08:11:01;20.40;99.90
34989;DHT22;21192;40.182;44.516;2023-05-20T08:13:27;20.40;99.90
34989;DHT22;21192;40.182;44.516;2023-05-20T08:15:53;20.40;99.90
34989;DHT22;21192;40.182;44.516;2023-05-20T08:18:19;20.40;99.90
34989;DHT22;21192;40.182;44.516;2023-05-20T08:20:45;20.40;99.90
34989;DHT22;21192;40.182;44.516;2023-05-20T08:23:11;20.40;99.90
34989;DHT22;21192;40.182;44.516;2023-05-20T08:25:37;20.50;99.90
34989;DHT22;21192;40.182;44.516;2023-05-20T08:28:03;20.70;99.90
34989;DHT22;21192;40.182;44.516;2023-05-20T08:30:32;20.90;99.50
34989;DHT22;21192;40.182;44.516;2023-05-20T08:32:58;21.00;99.10
34989;DHT22;21192;40.182;44.516;2023-05-20T08:35:24;21.10;98.70
34989;DHT22;21192;40.182;44.516;2023-05-20T08:37:51;21.10;98.20
34989;DHT22;21192;40.182;44.516;2023-05-20T08:40:20;21.20;97.90
34989;DHT22;21192;40.182;44.516;2023-05-20T08:42:50;21.30;97.70
34989;DHT22;21192;40.182;44.516;2023-05-20T08:45:20;21.30;97.60
34989;DHT22;21192;40.182;44.516;2023-05-20T08:47:48;21.40;97.30
34989;DHT22;21192;40.182;44.516;2023-05-20T08:50:15;21.50;96.70
34989;DHT22;21192;40.182;44.516;2023-05-20T08:52:45;21.60;96.10
34989;DHT22;21192;40.182;44.516;2023-05-20T08:57:42;21.70;95.40
34989;DHT22;21192;40.182;44.516;2023-05-20T09:00:14;21.70;95.20
34989;DHT22;21192;40.182;44.516;2023-05-20T09:02:43;21.80;95.20
34989;DHT22;21192;40.182;44.516;2023-05-20T09:05:10;21.90;95.00
34989;DHT22;21192;40.182;44.516;2023-05-20T09:07:36;21.90;94.80
34989;DHT22;21192;40.182;44.516;2023-05-20T09:10:02;22.10;94.50
34989;DHT22;21192;40.182;44.516;2023-05-20T09:12:28;22.20;94.00
34989;DHT22;21192;40.182;44.516;2023-05-20T09:14:54;22.30;93.70
34989;DHT22;21192;40.182;44.516;2023-05-20T09:17:23;22.40;93.30
34989;DHT22;21192;40.182;44.516;2023-05-20T09:19:49;22.50;92.90
34989;DHT22;21192;40.182;44.516;2023-05-20T09:22:26;22.50;92.70
34989;DHT22;21192;40.182;44.516;2023-05-20T09:24:53;22.50;92.50
34989;DHT22;21192;40.182;44.516;2023-05-20T09:27:19;22.50;92.40
34989;DHT22;21192;40.182;44.516;2023-05-20T09:29:49;22.50;92.00
34989;DHT22;21192;40.182;44.516;2023-05-20T09:32:16;22.40;91.90
34989;DHT22;21192;40.182;44.516;2023-05-20T09:34:46;22.40;91.90
34989;DHT22;21192;40.182;44.516;2023-05-20T09:37:13;22.40;91.80
34989;DHT22;21192;40.182;44.516;2023-05-20T09:39:55;22.50;91.60
34989;DHT22;21192;40.182;44.516;2023-05-20T09:45:27;22.60;91.40
34989;DHT22;21192;40.182;44.516;2023-05-20T09:47:54;22.60;91.30
34989;DHT22;21192;40.182;44.516;2023-05-20T09:50:21;22.60;91.30
34989;DHT22;21192;40.182;44.516;2023-05-20T09:52:49;22.50;91.50
34989;DHT22;21192;40.182;44.516;2023-05-20T09:55:17;22.40;91.70
34989;DHT22;21192;40.182;44.516;2023-05-20T09:57:44;22.30;91.70
34989;DHT22;21192;40.182;44.516;2023-05-20T10:00:11;22.20;91.80
34989;DHT22;21192;40.182;44.516;2023-05-20T10:02:49;22.30;91.80
34989;DHT22;21192;40.182;44.516;2023-05-20T10:05:31;22.20;91.90
34989;DHT22;21192;40.182;44.516;2023-05-20T10:20:56;21.40;95.80
34989;DHT22;21192;40.182;44.516;2023-05-20T10:23:23;21.30;96.50
34989;DHT22;21192;40.182;44.516;2023-05-20T10:25:51;21.20;96.90
34989;DHT22;21192;40.182;44.516;2023-05-20T10:28:33;21.10;97.00
34989;DHT22;21192;40.182;44.516;2023-05-20T10:31:17;21.10;97.20
34989;DHT22;21192;40.182;44.516;2023-05-20T10:33:44;21.10;97.00
34989;DHT22;21192;40.182;44.516;2023-05-20T10:36:22;21.10;96.80
34989;DHT22;21192;40.182;44.516;2023-05-20T10:38:56;21.00;97.20
34989;DHT22;21192;40.182;44.516;2023-05-20T10:41:27;21.00;97.40
34989;DHT22;21192;40.182;44.516;2023-05-20T10:44:00;21.10;97.00
34989;DHT22;21192;40.182;44.516;2023-05-20T10:46:27;21.20;97.00
34989;DHT22;21192;40.182;44.516;2023-05-20T10:48:53;21.30;96.80
34989;DHT22;21192;40.182;44.516;2023-05-20T10:51:19;21.40;96.50
34989;DHT22;21192;40.182;44.516;2023-05-20T10:53:46;21.50;96.30
34989;DHT22;21192;40.182;44.516;2023-05-20T10:56:19;21.60;96.20
34989;DHT22;21192;40.182;44.516;2023-05-20T10:58:49;21.60;96.50
34989;DHT22;21192;40.182;44.516;2023-05-20T11:01:16;21.60;96.80
34989;DHT22;21192;40.182;44.516;2023-05-20T11:03:44;21.70;97.20
34989;DHT22;21192;40.182;44.516;2023-05-20T11:06:18;21.80;97.50
34989;DHT22;21192;40.182;44.516;2023-05-20T11:08:44;21.80;97.10
34989;DHT22;21192;40.182;44.516;2023-05-20T11:11:11;21.70;97.30
34989;DHT22;21192;40.182;44.516;2023-05-20T11:13:37;21.60;97.50
34989;DHT22;21192;40.182;44.516;2023-05-20T11:16:04;21.60;97.80
34989;DHT22;21192;40.182;44.516;2023-05-20T11:18:30;21.50;98.00
34989;DHT22;21192;40.182;44.516;2023-05-20T11:21:00;21.50;98.10
34989;DHT22;21192;40.182;44.516;2023-05-20T11:23:27;21.60;98.20
34989;DHT22;21192;40.182;44.516;2023-05-20T11:25:54;21.50;98.30
34989;DHT22;21192;40.182;44.516;2023-05-20T11:28:20;21.50;98.20
34989;DHT22;21192;40.182;44.516;2023-05-20T11:30:47;21.40;98.20
34989;DHT22;21192;40.182;44.516;2023-05-20T11:33:15;21.40;98.70
34989;DHT22;21192;40.182;44.516;2023-05-20T11:35:52;21.30;99.00
34989;DHT22;21192;40.182;44.516;2023-05-20T11:38:20;21.40;99.30
34989;DHT22;21192;40.182;44.516;2023-05-20T11:40:51;21.40;99.40
34989;DHT22;21192;40.182;44.516;2023-05-20T11:43:18;21.40;99.60
34989;DHT22;21192;40.182;44.516;2023-05-20T11:45:47;21.40;99.50
34989;DHT22;21192;40.182;44.516;2023-05-20T11:48:18;21.50;99.30
34989;DHT22;21192;40.182;44.516;2023-05-20T11:50:45;21.50;98.90
34989;DHT22;21192;40.182;44.516;2023-05-20T11:53:18;21.50;98.70
34989;DHT22;21192;40.182;44.516;2023-05-20T11:55:52;21.50;98.60
34989;DHT22;21192;40.182;44.516;2023-05-20T11:58:20;21.50;98.50
34989;DHT22;21192;40.182;44.516;2023-05-20T12:00:46;21.40;97.70
34989;DHT22;21192;40.182;44.516;2023-05-20T12:03:12;21.30;97.00
34989;DHT22;21192;40.182;44.516;2023-05-20T12:05:38;21.10;96.70
34989;DHT22;21192;40.182;44.516;2023-05-20T12:08:05;21.00;96.70
34989;DHT22;21192;40.182;44.516;2023-05-20T12:10:31;20.80;97.10
34989;DHT22;21192;40.182;44.516;2023-05-20T12:12:57;20.50;97.40
34989;DHT22;21192;40.182;44.516;2023-05-20T12:15:23;20.40;97.40
34989;DHT22;21192;40.182;44.516;2023-05-20T12:17:51;20.40;97.30
34989;DHT22;21192;40.182;44.516;2023-05-20T12:20:22;20.40;96.70
34989;DHT22;21192;40.182;44.516;2023-05-20T12:22:48;20.50;96.00
34989;DHT22;21192;40.182;44.516;2023-05-20T12:25:16;20.70;94.80
34989;DHT22;21192;40.182;44.516;2023-05-20T12:27:45;20.70;93.40
34989;DHT22;21192;40.182;44.516;2023-05-20T12:30:20;20.90;92.60
34989;DHT22;21192;40.182;44.516;2023-05-20T12:32:48;21.00;92.00
34989;DHT22;21192;40.182;44.516;2023-05-20T12:35:15;21.10;91.20
34989;DHT22;21192;40.182;44.516;2023-05-20T12:37:42;21.20;90.80
34989;DHT22;21192;40.182;44.516;2023-05-20T12:40:09;21.20;88.90
34989;DHT22;21192;40.182;44.516;2023-05-20T12:42:40;21.10;89.20
34989;DHT22;21192;40.182;44.516;2023-05-20T12:45:07;21.00;91.40
34989;DHT22;21192;40.182;44.516;2023-05-20T12:47:34;21.10;93.90
34989;DHT22;21192;40.182;44.516;2023-05-20T12:50:01;21.20;95.70
34989;DHT22;21192;40.182;44.516;2023-05-20T12:52:28;21.30;96.50
34989;DHT22;21192;40.182;44.516;2023-05-20T12:54:54;21.30;97.00
34989;DHT22;21192;40.182;44.516;2023-05-20T12:57:21;21.30;97.20
34989;DHT22;21192;40.182;44.516;2023-05-20T12:59:47;21.30;97.40
34989;DHT22;21192;40.182;44.516;2023-05-20T13:02:13;21.40;97.60
34989;DHT22;21192;40.182;44.516;2023-05-20T13:04:39;21.40;97.60
34989;DHT22;21192;40.182;44.516;2023-05-20T13:07:05;21.40;97.90
34989;DHT22;21192;40.182;44.516;2023-05-20T13:09:31;21.40;98.10
34989;DHT22;21192;40.182;44.516;2023-05-20T13:11:57;21.40;98.20
34989;DHT22;21192;40.182;44.516;2023-05-20T13:14:23;21.40;98.40
34989;DHT22;21192;40.182;44.516;2023-05-20T13:16:50;21.40;98.40
34989;DHT22;21192;40.182;44.516;2023-05-20T13:19:20;21.40;98.40
34989;DHT22;21192;40.182;44.516;2023-05-20T13:21:50;21.40;98.20
34989;DHT22;21192;40.182;44.516;2023-05-20T13:24:17;21.40;98.10
34989;DHT22;21192;40.182;44.516;2023-05-20T13:26:43;21.30;97.70
34989;DHT22;21192;40.182;44.516;2023-05-20T13:29:10;21.30;97.30
34989;DHT22;21192;40.182;44.516;2023-05-20T13:31:37;21.40;97.00
34989;DHT22;21192;40.182;44.516;2023-05-20T13:34:03;21.40;96.80
34989;DHT22;21192;40.182;44.516;2023-05-20T13:36:29;21.40;96.70
34989;DHT22;21192;40.182;44.516;2023-05-20T13:38:55;21.40;96.50
34989;DHT22;21192;40.182;44.516;2023-05-20T13:41:22;21.30;96.30
34989;DHT22;21192;40.182;44.516;2023-05-20T13:43:49;21.30;96.50
34989;DHT22;21192;40.182;44.516;2023-05-20T13:46:15;21.20;96.60
34989;DHT22;21192;40.182;44.516;2023-05-20T13:48:41;21.00;96.20
34989;DHT22;21192;40.182;44.516;2023-05-20T13:51:07;20.80;95.40
34989;DHT22;21192;40.182;44.516;2023-05-20T13:53:33;20.50;94.80
34989;DHT22;21192;40.182;44.516;2023-05-20T13:55:59;20.40;94.90
34989;DHT22;21192;40.182;44.516;2023-05-20T13:58:25;20.30;94.90
34989;DHT22;21192;40.182;44.516;2023-05-20T14:00:51;20.20;94.90
34989;DHT22;21192;40.182;44.516;2023-05-20T14:03:18;20.20;94.70
34989;DHT22;21192;40.182;44.516;2023-05-20T14:05:44;20.10;94.80
34989;DHT22;21192;40.182;44.516;2023-05-20T14:08:11;20.10;95.00
34989;DHT22;21192;40.182;44.516;2023-05-20T14:10:37;20.00;95.10
34989;DHT22;21192;40.182;44.516;2023-05-20T14:13:03;19.90;95.30
34989;DHT22;21192;40.182;44.516;2023-05-20T14:15:29;19.90;95.50
34989;DHT22;21192;40.182;44.516;2023-05-20T14:17:56;19.90;95.70
34989;DHT22;21192;40.182;44.516;2023-05-20T14:20:23;20.00;95.70
34989;DHT22;21192;40.182;44.516;2023-05-20T14:22:50;19.90;95.80
34989;DHT22;21192;40.182;44.516;2023-05-20T14:25:16;19.90;95.80
34989;DHT22;21192;40.182;44.516;2023-05-20T14:27:42;19.90;95.70
34989;DHT22;21192;40.182;44.516;2023-05-20T14:30:09;20.00;95.60
34989;DHT22;21192;40.182;44.516;2023-05-20T14:32:35;20.10;95.40
34989;DHT22;21192;40.182;44.516;2023-05-20T14:35:01;20.10;95.20
34989;DHT22;21192;40.182;44.516;2023-05-20T14:37:27;20.00;94.90
34989;DHT22;21192;40.182;44.516;2023-05-20T14:39:56;20.00;94.90
34989;DHT22;21192;40.182;44.516;2023-05-20T14:42:22;20.00;94.70
34989;DHT22;21192;40.182;44.516;2023-05-20T14:44:48;20.00;94.80
34989;DHT22;21192;40.182;44.516;2023-05-20T14:47:14;20.00;94.90
34989;DHT22;21192;40.182;44.516;2023-05-20T14:49:49;20.00;94.80
34989;DHT22;21192;40.182;44.516;2023-05-20T14:52:15;20.00;94.80
34989;DHT22;21192;40.182;44.516;2023-05-20T14:54:42;20.10;94.60
34989;DHT22;21192;40.182;44.516;2023-05-20T14:57:07;20.20;94.30
34989;DHT22;21192;40.182;44.516;2023-05-20T14:59:33;20.20;93.60
34989;DHT22;21192;40.182;44.516;2023-05-20T15:01:59;20.20;93.20
34989;DHT22;21192;40.182;44.516;2023-05-20T15:04:26;20.20;92.90
34989;DHT22;21192;40.182;44.516;2023-05-20T15:06:52;20.20;92.80
34989;DHT22;21192;40.182;44.516;2023-05-20T15:09:18;20.20;92.40
34989;DHT22;21192;40.182;44.516;2023-05-20T15:11:44;20.20;92.00
34989;DHT22;21192;40.182;44.516;2023-05-20T15:14:10;20.20;91.50
34989;DHT22;21192;40.182;44.516;2023-05-20T15:16:36;20.20;91.20
34989;DHT22;21192;40.182;44.516;2023-05-20T15:19:02;20.10;90.90
34989;DHT22;21192;40.182;44.516;2023-05-20T15:21:28;20.10;90.80
34989;DHT22;21192;40.182;44.516;2023-05-20T15:23:55;20.10;90.70
34989;DHT22;21192;40.182;44.516;2023-05-20T15:26:21;20.10;90.70
34989;DHT22;21192;40.182;44.516;2023-05-20T15:28:47;20.10;90.60
34989;DHT22;21192;40.182;44.516;2023-05-20T15:31:13;20.10;90.50
34989;DHT22;21192;40.182;44.516;2023-05-20T15:33:39;20.10;90.60